This is the latest recevied weather packets stored in our database for station/object WMKP. If no packets are shown the sender has not sent any weather packets the latest 10 day(s).
| Time | Temp. | Humidity | Pressure | Rain* | Wind** | Luminosity | Snow |
|---|---|---|---|---|---|---|---|
| 1777929023 | 25.56° C | 88% | 1008 hPa | - | - | - | - |
| 1777923605 | 25.56° C | 88% | 1008 hPa | - | - | - | - |
| 1777921831 | 25.56° C | 88% | 1008 hPa | - | - | - | - |
| 1777913397 | 25.56° C | 94% | 1010 hPa | - | - | - | - |
| 1777909204 | 25.56° C | 94% | 1010 hPa | - | - | - | - |
| 1777905604 | 25.56° C | 94% | 1010 hPa | - | - | - | - |
| 1777896623 | 28.89° C | 74% | 1007 hPa | - | - | - | - |
| 1777893028 | 28.89° C | 74% | 1007 hPa | - | - | - | - |
| 1777889423 | 30° C | 70% | 1006 hPa | - | - | - | - |
| 1777887606 | 30° C | 66% | 1006 hPa | - | - | - | - |
| 1777885821 | 30° C | 66% | 1007 hPa | - | - | - | - |
| 1777884003 | 30° C | 66% | 1007 hPa | - | - | - | - |
| 1777882221 | 30° C | 70% | 1007 hPa | - | - | - | - |
| 1777880406 | 30° C | 70% | 1008 hPa | - | - | - | - |
| 1777878627 | 30.56° C | 70% | 1008 hPa | - | - | - | - |
| 1777876807 | 30.56° C | 70% | 1009 hPa | - | - | - | - |
| 1777875022 | 30° C | 74% | 1010 hPa | - | - | - | - |
| 1777873206 | 28.89° C | 79% | 1010 hPa | - | - | - | - |
| 1777871421 | 27.78° C | 78% | 1011 hPa | - | - | - | - |
| 1777869603 | 27.78° C | 83% | 1011 hPa | - | - | - | - |
| 1777868399 | 26.67° C | 83% | 1011 hPa | - | - | - | - |
| 1777867821 | 26.67° C | 83% | 1011 hPa | - | - | - | - |
| 1777842622 | 25.56° C | 88% | 1008 hPa | - | - | - | - |
| 1777835421 | 25.56° C | 88% | 1008 hPa | - | - | - | - |
| 1777831820 | 25.56° C | 88% | 1009 hPa | - | - | - | - |
* Rain since midnight (hover to see other rain measurements)
** Current wind speed in m/s (hover to see current wind gust speed)